createdAt,value
2018-12-22T00:00:18.602Z,7.59
2018-12-22T00:01:18.591Z,7.61
2018-12-22T00:02:18.582Z,7.52
2018-12-22T00:03:18.566Z,7.52
2018-12-22T00:04:18.555Z,7.59
2018-12-22T00:05:18.535Z,7.52
2018-12-22T00:06:18.525Z,7.48
2018-12-22T00:07:18.511Z,7.52
2018-12-22T00:08:18.498Z,7.47
2018-12-22T00:09:18.487Z,7.51
2018-12-22T00:10:18.473Z,7.52
2018-12-22T00:11:18.502Z,7.55
2018-12-22T00:12:18.444Z,7.63
2018-12-22T00:13:18.434Z,7.63
2018-12-22T00:14:18.422Z,7.58
2018-12-22T00:15:18.418Z,7.71
2018-12-22T00:16:18.145Z,7.77
2018-12-22T00:17:18.146Z,7.83
2018-12-22T00:18:18.406Z,7.8
2018-12-22T00:19:18.362Z,7.82
2018-12-22T00:20:18.345Z,7.78
2018-12-22T00:21:18.330Z,7.8
2018-12-22T00:22:18.316Z,7.78
2018-12-22T00:23:18.751Z,7.73
2018-12-22T00:24:18.290Z,7.71
2018-12-22T00:25:18.279Z,7.73
2018-12-22T00:26:18.262Z,7.68
2018-12-22T00:27:18.249Z,7.74
2018-12-22T00:28:26.640Z,7.74
2018-12-22T00:29:17.983Z,7.73
2018-12-22T00:30:17.974Z,7.77
2018-12-22T00:31:24.462Z,7.85
2018-12-22T00:32:18.227Z,7.78
2018-12-22T00:33:18.238Z,7.8
2018-12-22T00:34:18.166Z,7.89
2018-12-22T00:35:18.142Z,7.93
2018-12-22T00:36:18.130Z,7.96
2018-12-22T00:37:18.119Z,7.96
2018-12-22T00:38:18.109Z,7.96
2018-12-22T00:39:18.091Z,7.99
2018-12-22T00:40:18.084Z,8.03
2018-12-22T00:41:18.064Z,8.03
2018-12-22T00:42:18.052Z,8.07
2018-12-22T00:43:17.789Z,8.07
2018-12-22T00:44:17.793Z,8.06
2018-12-22T00:45:18.121Z,8.16
2018-12-22T00:46:18.007Z,8.07
2018-12-22T00:47:17.996Z,8.19
2018-12-22T00:48:17.978Z,8.1
2018-12-22T00:49:17.961Z,8.13
2018-12-22T00:50:17.951Z,8.07
2018-12-22T00:51:17.692Z,8.16
2018-12-22T00:52:17.679Z,8.07
2018-12-22T00:53:17.911Z,8.16
2018-12-22T00:54:18.077Z,8.16
2018-12-22T00:55:17.886Z,8.07
2018-12-22T00:56:17.629Z,8.21
2018-12-22T00:57:17.864Z,8.25
2018-12-22T00:58:17.847Z,8.31
2018-12-22T00:59:17.593Z,8.19
2018-12-22T01:00:18.379Z,8.19
2018-12-22T01:01:17.562Z,8.17
2018-12-22T01:02:17.801Z,8.21
2018-12-22T01:03:17.795Z,8.28
2018-12-22T01:04:17.774Z,8.26
2018-12-22T01:05:17.524Z,8.24
2018-12-22T01:06:17.747Z,8.26
2018-12-22T01:07:17.735Z,8.35
2018-12-22T01:08:17.726Z,8.22
2018-12-22T01:09:17.461Z,8.21
2018-12-22T01:10:17.699Z,8.19
2018-12-22T01:11:17.690Z,8.24
2018-12-22T01:12:17.672Z,8.25
2018-12-22T01:13:17.670Z,8.22
2018-12-22T01:14:17.644Z,8.17
2018-12-22T01:15:17.387Z,8.21
2018-12-22T01:16:17.619Z,8.17
2018-12-22T01:17:17.362Z,8.21
2018-12-22T01:18:17.596Z,8.22
2018-12-22T01:19:17.589Z,8.21
2018-12-22T01:20:17.328Z,8.25
2018-12-22T01:21:17.563Z,8.24
2018-12-22T01:22:17.545Z,8.24
2018-12-22T01:23:17.534Z,8.34
2018-12-22T01:24:17.519Z,8.24
2018-12-22T01:25:17.503Z,8.22
2018-12-22T01:26:17.494Z,8.22
2018-12-22T01:27:17.483Z,8.21
2018-12-22T01:28:17.466Z,8.32
2018-12-22T01:29:17.456Z,8.21
2018-12-22T01:30:17.447Z,8.22
2018-12-22T01:31:17.429Z,8.24
2018-12-22T01:32:17.417Z,8.19
2018-12-22T01:33:17.403Z,8.19
2018-12-22T01:34:17.144Z,8.25
2018-12-22T01:35:17.380Z,8.21
2018-12-22T01:36:17.363Z,8.26
2018-12-22T01:37:17.355Z,8.16
2018-12-22T01:38:17.344Z,8.25
2018-12-22T01:39:17.330Z,8.28
2018-12-22T01:40:17.315Z,8.19
2018-12-22T01:41:17.302Z,8.31
2018-12-22T01:42:17.292Z,8.21
2018-12-22T01:43:17.279Z,8.22
2018-12-22T01:44:17.266Z,8.31
2018-12-22T01:45:17.015Z,8.17
2018-12-22T01:46:17.240Z,8.26
2018-12-22T01:47:16.996Z,8.17
2018-12-22T01:48:17.214Z,8.22
2018-12-22T01:49:17.200Z,8.22
2018-12-22T01:50:17.187Z,8.26
2018-12-22T01:51:17.179Z,8.24
2018-12-22T01:52:17.162Z,8.19
2018-12-22T01:53:17.151Z,8.22
2018-12-22T01:54:17.144Z,8.31
2018-12-22T01:55:17.125Z,8.31
2018-12-22T01:56:17.117Z,8.22
2018-12-22T01:57:17.103Z,8.32
2018-12-22T01:58:17.084Z,8.22
2018-12-22T01:59:17.077Z,8.29
2018-12-22T02:00:17.065Z,8.22
2018-12-22T02:01:17.048Z,8.29
2018-12-22T02:02:17.042Z,8.25
2018-12-22T02:03:17.030Z,8.34
2018-12-22T02:04:16.765Z,8.28
2018-12-22T02:05:16.997Z,8.31
2018-12-22T02:06:16.984Z,8.22
2018-12-22T02:07:16.735Z,8.29
2018-12-22T02:08:16.965Z,8.31
2018-12-22T02:09:16.946Z,8.28
2018-12-22T02:10:16.935Z,8.28
2018-12-22T02:11:16.926Z,8.26
2018-12-22T02:12:16.913Z,8.34
2018-12-22T02:13:16.894Z,8.35
2018-12-22T02:14:16.887Z,8.28
2018-12-22T02:15:16.629Z,8.25
2018-12-22T02:16:16.862Z,8.24
2018-12-22T02:17:16.598Z,8.21
2018-12-22T02:18:16.832Z,8.22
2018-12-22T02:19:16.824Z,8.25
2018-12-22T02:20:16.816Z,8.24
2018-12-22T02:21:16.798Z,8.36
2018-12-22T02:22:16.784Z,8.35
2018-12-22T02:23:16.526Z,8.28
2018-12-22T02:24:16.518Z,8.32
2018-12-22T02:25:16.746Z,8.28
2018-12-22T02:26:16.737Z,8.26
2018-12-22T02:27:16.723Z,8.31
2018-12-22T02:28:16.713Z,8.31
2018-12-22T02:29:16.696Z,8.19
2018-12-22T02:30:16.698Z,8.35
2018-12-22T02:31:16.675Z,8.26
2018-12-22T02:32:18.263Z,8.31
2018-12-22T02:33:16.654Z,8.19
2018-12-22T02:34:16.387Z,8.31
2018-12-22T02:35:16.634Z,8.29
2018-12-22T02:36:16.614Z,8.22
2018-12-22T02:37:16.610Z,8.28
2018-12-22T02:38:16.586Z,8.19
2018-12-22T02:39:16.574Z,8.16
2018-12-22T02:40:16.560Z,8.26
2018-12-22T02:41:16.553Z,8.21
2018-12-22T02:42:16.540Z,8.22
2018-12-22T02:43:16.525Z,8.31
2018-12-22T02:44:16.271Z,8.19
2018-12-22T02:45:16.497Z,8.17
2018-12-22T02:46:16.496Z,8.22
2018-12-22T02:47:16.227Z,8.34
2018-12-22T02:48:16.214Z,8.22
2018-12-22T02:49:16.456Z,8.24
2018-12-22T02:50:16.198Z,8.32
2018-12-22T02:51:16.424Z,8.22
2018-12-22T02:52:16.406Z,8.34
2018-12-22T02:53:16.397Z,8.26
2018-12-22T02:54:16.383Z,8.24
2018-12-22T02:55:16.376Z,8.25
2018-12-22T02:56:16.356Z,8.24
2018-12-22T02:57:16.351Z,8.21
2018-12-22T02:58:16.334Z,8.17
2018-12-22T02:59:16.319Z,8.19
2018-12-22T03:00:16.308Z,8.21
2018-12-22T03:01:16.303Z,8.21
2018-12-22T03:02:16.283Z,8.17
2018-12-22T03:03:16.422Z,8.19
2018-12-22T03:04:16.263Z,8.31
2018-12-22T03:05:16.250Z,8.34
2018-12-22T03:06:16.242Z,8.19
2018-12-22T03:07:16.321Z,8.26
2018-12-22T03:08:16.210Z,8.19
2018-12-22T03:09:16.204Z,8.28
2018-12-22T03:10:16.200Z,8.19
2018-12-22T03:11:16.177Z,8.19
2018-12-22T03:12:16.156Z,8.21
2018-12-22T03:13:16.145Z,8.26
2018-12-22T03:14:16.245Z,8.22
2018-12-22T03:15:16.222Z,8.07
2018-12-22T03:16:16.106Z,8.19
2018-12-22T03:17:16.096Z,8.17
2018-12-22T03:18:16.082Z,8.16
2018-12-22T03:19:16.100Z,8.13
2018-12-22T03:20:16.059Z,8.16
2018-12-22T03:21:16.051Z,8.16
2018-12-22T03:22:16.038Z,8.09
2018-12-22T03:23:16.018Z,8.11
2018-12-22T03:24:16.009Z,8.09
2018-12-22T03:25:15.753Z,8.06
2018-12-22T03:26:15.735Z,8.07
2018-12-22T03:27:15.970Z,8.06
2018-12-22T03:28:15.967Z,8.09
2018-12-22T03:29:20.215Z,8.1
2018-12-22T03:30:15.977Z,8.07
2018-12-22T03:31:15.954Z,8.07
2018-12-22T03:32:15.942Z,8.07
2018-12-22T03:33:15.912Z,8.09
2018-12-22T03:34:15.879Z,8.04
2018-12-22T03:35:15.865Z,8.06
2018-12-22T03:36:15.604Z,8.06
2018-12-22T03:37:15.837Z,7.99
2018-12-22T03:38:15.827Z,8.01
2018-12-22T03:39:15.817Z,7.96
2018-12-22T03:40:15.809Z,8.03
2018-12-22T03:41:15.550Z,7.93
2018-12-22T03:42:15.774Z,7.93
2018-12-22T03:43:15.764Z,7.96
2018-12-22T03:44:15.747Z,7.99
2018-12-22T03:45:15.737Z,7.98
2018-12-22T03:46:15.728Z,7.95
2018-12-22T03:47:15.721Z,7.99
2018-12-22T03:48:15.449Z,7.96
2018-12-22T03:49:15.444Z,8.01
2018-12-22T03:50:15.428Z,7.93
2018-12-22T03:51:15.662Z,7.91
2018-12-22T03:52:15.412Z,8.01
2018-12-22T03:53:15.639Z,7.98
2018-12-22T03:54:15.629Z,8.01
2018-12-22T03:55:15.358Z,7.96
2018-12-22T03:56:15.446Z,7.96
2018-12-22T03:57:15.585Z,7.96
2018-12-22T03:58:15.588Z,7.99
2018-12-22T03:59:24.441Z,7.98
2018-12-22T04:00:15.549Z,7.99
2018-12-22T04:01:15.533Z,8.04
2018-12-22T04:02:15.532Z,8.03
2018-12-22T04:03:16.792Z,7.99
2018-12-22T04:04:15.496Z,7.96
2018-12-22T04:05:15.490Z,7.96
2018-12-22T04:06:15.475Z,7.96
2018-12-22T04:07:15.456Z,8.03
2018-12-22T04:08:15.195Z,8.01
2018-12-22T04:09:15.436Z,8.01
2018-12-22T04:10:15.175Z,8.03
2018-12-22T04:11:15.413Z,7.99
2018-12-22T04:12:15.151Z,8.01
2018-12-22T04:13:15.237Z,8.03
2018-12-22T04:14:15.130Z,7.99
2018-12-22T04:15:15.107Z,7.98
2018-12-22T04:16:15.344Z,8.04
2018-12-22T04:17:15.334Z,7.98
2018-12-22T04:18:15.319Z,7.95
2018-12-22T04:19:15.057Z,7.96
2018-12-22T04:20:15.290Z,7.96
2018-12-22T04:21:15.275Z,7.98
2018-12-22T04:22:15.269Z,8.03
2018-12-22T04:23:15.275Z,8.03
2018-12-22T04:24:14.996Z,8.06
2018-12-22T04:25:14.979Z,8.04
2018-12-22T04:26:15.210Z,8.09
2018-12-22T04:27:15.212Z,8.03
2018-12-22T04:28:15.186Z,8.04
2018-12-22T04:29:15.180Z,8.03
2018-12-22T04:30:15.168Z,7.99
2018-12-22T04:31:15.152Z,8.06
2018-12-22T04:32:15.136Z,8.01
2018-12-22T04:33:15.124Z,8.09
2018-12-22T04:34:15.109Z,8.03
2018-12-22T04:35:15.101Z,7.98
2018-12-22T04:36:15.092Z,8.06
2018-12-22T04:37:15.069Z,8.03
2018-12-22T04:38:15.058Z,7.98
2018-12-22T04:39:14.700Z,7.96
2018-12-22T04:40:15.050Z,7.95
2018-12-22T04:41:15.029Z,7.96
2018-12-22T04:42:15.006Z,8.03
2018-12-22T04:43:14.998Z,8.04
2018-12-22T04:44:14.987Z,7.95
2018-12-22T04:45:14.971Z,7.99
2018-12-22T04:46:14.957Z,8.04
2018-12-22T04:47:14.945Z,7.95
2018-12-22T04:48:14.940Z,7.99
2018-12-22T04:49:14.938Z,7.99
2018-12-22T04:50:14.655Z,7.95
2018-12-22T04:51:14.898Z,7.98
2018-12-22T04:52:14.890Z,7.98
2018-12-22T04:53:14.872Z,7.99
2018-12-22T04:54:14.855Z,7.99
2018-12-22T04:55:14.842Z,7.99
2018-12-22T04:56:14.847Z,7.96
2018-12-22T04:57:14.819Z,7.95
2018-12-22T04:58:14.806Z,7.96
2018-12-22T04:59:14.789Z,7.92
2018-12-22T05:00:14.780Z,7.96
2018-12-22T05:01:14.763Z,7.98
2018-12-22T05:02:14.751Z,7.98
2018-12-22T05:03:14.740Z,8.03
2018-12-22T05:04:14.478Z,7.96
2018-12-22T05:05:14.711Z,7.98
2018-12-22T05:06:14.712Z,7.96
2018-12-22T05:07:14.700Z,7.98
2018-12-22T05:08:14.673Z,7.95
2018-12-22T05:09:14.413Z,7.86
2018-12-22T05:10:14.398Z,7.92
2018-12-22T05:11:14.638Z,7.95
2018-12-22T05:12:14.626Z,7.96
2018-12-22T05:13:14.610Z,7.88
2018-12-22T05:14:14.601Z,7.98
2018-12-22T05:15:14.595Z,7.92
2018-12-22T05:16:14.575Z,7.95
2018-12-22T05:17:14.314Z,7.96
2018-12-22T05:18:14.296Z,7.95
2018-12-22T05:19:14.546Z,7.96
2018-12-22T05:20:15.444Z,7.95
2018-12-22T05:21:14.513Z,7.89
2018-12-22T05:22:14.495Z,7.95
2018-12-22T05:23:14.480Z,7.88
2018-12-22T05:24:14.466Z,7.89
2018-12-22T05:25:14.462Z,7.93
2018-12-22T05:26:13.943Z,7.96
2018-12-22T05:27:14.431Z,7.89
2018-12-22T05:28:14.418Z,7.92
2018-12-22T05:29:14.404Z,7.88
2018-12-22T05:30:14.392Z,7.78
2018-12-22T05:31:14.388Z,7.86
2018-12-22T05:32:14.368Z,7.85
2018-12-22T05:33:14.354Z,7.86
2018-12-22T05:34:14.345Z,7.88
2018-12-22T05:35:14.328Z,7.75
2018-12-22T05:36:14.319Z,7.8
2018-12-22T05:37:14.300Z,7.86
2018-12-22T05:38:14.287Z,7.89
2018-12-22T05:39:14.275Z,7.85
2018-12-22T05:40:14.261Z,7.96
2018-12-22T05:41:14.252Z,7.86
2018-12-22T05:42:14.246Z,7.89
2018-12-22T05:43:14.224Z,7.82
2018-12-22T05:44:14.209Z,7.89
2018-12-22T05:45:14.198Z,7.83
2018-12-22T05:46:14.186Z,7.86
2018-12-22T05:47:14.176Z,7.75
2018-12-22T05:48:14.157Z,7.8
2018-12-22T05:49:14.146Z,7.82
2018-12-22T05:50:14.137Z,7.93
2018-12-22T05:51:14.121Z,7.8
2018-12-22T05:52:14.104Z,7.78
2018-12-22T05:53:13.845Z,7.83
2018-12-22T05:54:14.081Z,7.86
2018-12-22T05:55:14.066Z,7.91
2018-12-22T05:56:14.053Z,7.86
2018-12-22T05:57:14.047Z,7.91
2018-12-22T05:58:13.785Z,7.89
2018-12-22T05:59:14.016Z,7.95
2018-12-22T06:00:14.012Z,7.93
2018-12-22T06:01:13.993Z,7.96
2018-12-22T06:02:13.977Z,7.98
2018-12-22T06:03:13.962Z,7.85
2018-12-22T06:04:13.703Z,7.91
2018-12-22T06:05:13.945Z,7.93
2018-12-22T06:06:13.931Z,7.85
2018-12-22T06:07:13.668Z,7.96
2018-12-22T06:08:13.654Z,7.92
2018-12-22T06:09:13.887Z,7.95
2018-12-22T06:10:13.630Z,7.95
2018-12-22T06:11:13.862Z,7.98
2018-12-22T06:12:13.851Z,7.91
2018-12-22T06:13:13.832Z,7.95
2018-12-22T06:14:13.820Z,7.98
2018-12-22T06:15:13.811Z,7.86
2018-12-22T06:16:13.805Z,7.95
2018-12-22T06:17:13.610Z,7.96
2018-12-22T06:18:13.773Z,7.96
2018-12-22T06:19:13.756Z,7.92
2018-12-22T06:20:13.746Z,7.91
2018-12-22T06:21:13.731Z,7.92
2018-12-22T06:22:13.472Z,7.89
2018-12-22T06:23:13.222Z,7.91
2018-12-22T06:24:13.696Z,7.89
2018-12-22T06:25:13.687Z,7.86
2018-12-22T06:26:13.667Z,7.92
2018-12-22T06:27:13.655Z,7.89
2018-12-22T06:28:13.642Z,7.86
2018-12-22T06:29:13.627Z,7.89
2018-12-22T06:30:14.328Z,7.86
2018-12-22T06:31:13.607Z,7.78
2018-12-22T06:32:13.590Z,7.78
2018-12-22T06:33:13.641Z,7.85
2018-12-22T06:34:13.564Z,7.86
2018-12-22T06:35:13.553Z,7.89
2018-12-22T06:36:13.538Z,7.89
2018-12-22T06:37:13.526Z,7.92
2018-12-22T06:38:13.512Z,7.91
2018-12-22T06:39:13.249Z,7.89
2018-12-22T06:40:13.488Z,7.95
2018-12-22T06:41:13.474Z,7.91
2018-12-22T06:42:13.218Z,7.95
2018-12-22T06:43:13.450Z,7.85
2018-12-22T06:44:13.437Z,7.88
2018-12-22T06:45:13.423Z,7.86
2018-12-22T06:46:13.421Z,7.89
2018-12-22T06:47:13.150Z,7.83
2018-12-22T06:48:13.138Z,7.91
2018-12-22T06:49:13.372Z,7.82
2018-12-22T06:50:13.355Z,7.95
2018-12-22T06:51:13.347Z,7.96
2018-12-22T06:52:13.338Z,7.93
2018-12-22T06:53:13.319Z,7.92
2018-12-22T06:54:13.308Z,7.91
2018-12-22T06:55:13.293Z,7.96
2018-12-22T06:56:13.141Z,7.86
2018-12-22T06:57:12.772Z,7.88
2018-12-22T06:58:13.311Z,7.83
2018-12-22T06:59:13.246Z,7.85
2018-12-22T07:00:20.297Z,7.91
2018-12-22T07:01:13.221Z,7.82
2018-12-22T07:02:13.235Z,7.77
2018-12-22T07:03:12.942Z,7.78
2018-12-22T07:04:12.931Z,7.8
2018-12-22T07:05:12.920Z,7.86
2018-12-22T07:06:13.156Z,7.85
2018-12-22T07:07:13.153Z,7.8
2018-12-22T07:08:13.126Z,7.78
2018-12-22T07:09:13.115Z,7.82
2018-12-22T07:10:12.852Z,7.82
2018-12-22T07:11:12.841Z,7.85
2018-12-22T07:12:13.075Z,7.82
2018-12-22T07:13:13.068Z,7.77
2018-12-22T07:14:13.061Z,7.8
2018-12-22T07:15:13.036Z,7.83
2018-12-22T07:16:13.029Z,7.78
2018-12-22T07:17:13.010Z,7.78
2018-12-22T07:18:13.002Z,7.8
2018-12-22T07:19:12.982Z,7.78
2018-12-22T07:20:12.973Z,7.83
2018-12-22T07:21:13.076Z,7.78
2018-12-22T07:22:12.696Z,7.77
2018-12-22T07:23:12.933Z,7.77
2018-12-22T07:24:12.923Z,7.86
2018-12-22T07:25:12.661Z,7.78
2018-12-22T07:26:12.964Z,7.8
2018-12-22T07:27:12.883Z,7.77
2018-12-22T07:28:12.870Z,7.77
2018-12-22T07:29:12.864Z,7.8
2018-12-22T07:30:12.844Z,7.86
2018-12-22T07:31:12.836Z,7.86
2018-12-22T07:32:12.826Z,7.83
2018-12-22T07:33:12.805Z,7.86
2018-12-22T07:34:12.794Z,7.88
2018-12-22T07:35:12.778Z,7.85
2018-12-22T07:36:12.768Z,7.89
2018-12-22T07:37:12.757Z,7.8
2018-12-22T07:38:12.744Z,7.93
2018-12-22T07:39:12.480Z,7.89
2018-12-22T07:40:12.711Z,7.82
2018-12-22T07:41:12.567Z,7.8
2018-12-22T07:42:12.689Z,7.86
2018-12-22T07:43:12.680Z,7.8
2018-12-22T07:44:12.664Z,7.86
2018-12-22T07:45:12.403Z,7.85
2018-12-22T07:46:12.634Z,7.8
2018-12-22T07:47:12.624Z,7.85
2018-12-22T07:48:12.646Z,7.78
2018-12-22T07:49:12.600Z,7.83
2018-12-22T07:50:12.337Z,7.83
2018-12-22T07:51:12.574Z,7.83
2018-12-22T07:52:12.567Z,7.8
2018-12-22T07:53:12.546Z,7.8
2018-12-22T07:54:12.541Z,7.82
2018-12-22T07:55:12.525Z,7.85
2018-12-22T07:56:12.508Z,7.82
2018-12-22T07:57:12.491Z,7.75
2018-12-22T07:58:12.484Z,7.77
2018-12-22T07:59:12.470Z,7.74
2018-12-22T08:00:12.469Z,7.77
2018-12-22T08:01:12.459Z,7.83
2018-12-22T08:02:12.178Z,7.82
2018-12-22T08:03:13.848Z,7.77
2018-12-22T08:04:12.401Z,7.73
2018-12-22T08:05:12.392Z,7.8
2018-12-22T08:06:12.379Z,7.83
2018-12-22T08:07:12.115Z,7.8
2018-12-22T08:08:12.353Z,7.77
2018-12-22T08:09:12.091Z,7.82
2018-12-22T08:10:12.330Z,7.75
2018-12-22T08:11:12.430Z,7.83
2018-12-22T08:12:12.307Z,7.77
2018-12-22T08:13:12.039Z,7.82
2018-12-22T08:14:12.272Z,7.82
2018-12-22T08:15:12.259Z,7.82
2018-12-22T08:16:12.246Z,7.86
2018-12-22T08:17:12.236Z,7.86
2018-12-22T08:18:12.220Z,7.86
2018-12-22T08:19:11.959Z,7.88
2018-12-22T08:20:12.197Z,7.98
2018-12-22T08:21:12.179Z,7.95
2018-12-22T08:22:13.309Z,8.03
2018-12-22T08:23:12.155Z,8.03
2018-12-22T08:24:12.140Z,8.04
2018-12-22T08:25:12.129Z,8.07
2018-12-22T08:26:12.115Z,8.06
2018-12-22T08:27:12.103Z,8.1
2018-12-22T08:28:12.090Z,8.06
2018-12-22T08:29:11.828Z,8.22
2018-12-22T08:30:12.142Z,8.14
2018-12-22T08:31:12.055Z,8.22
2018-12-22T08:32:11.798Z,8.25
2018-12-22T08:33:12.027Z,8.31
2018-12-22T08:34:12.124Z,8.26
2018-12-22T08:35:11.999Z,8.22
2018-12-22T08:36:11.986Z,8.32
2018-12-22T08:37:11.974Z,8.19
2018-12-22T08:38:11.965Z,8.28
2018-12-22T08:39:11.953Z,8.31
2018-12-22T08:40:11.935Z,8.29
2018-12-22T08:41:11.928Z,8.25
2018-12-22T08:42:11.664Z,8.26
2018-12-22T08:43:11.898Z,8.36
2018-12-22T08:44:11.887Z,8.4
2018-12-22T08:45:11.876Z,8.32
2018-12-22T08:46:11.862Z,8.34
2018-12-22T08:47:11.855Z,8.34
2018-12-22T08:48:11.839Z,8.46
2018-12-22T08:49:11.821Z,8.43
2018-12-22T08:50:14.221Z,8.49
2018-12-22T08:51:11.801Z,8.57
2018-12-22T08:52:11.795Z,8.52
2018-12-22T08:53:11.779Z,8.6
2018-12-22T08:54:11.760Z,8.65
2018-12-22T08:55:11.553Z,8.67
2018-12-22T08:56:11.840Z,8.62
2018-12-22T08:57:11.724Z,8.6
2018-12-22T08:58:11.967Z,8.62
2018-12-22T08:59:11.703Z,8.58
2018-12-22T09:00:11.687Z,8.53
2018-12-22T09:01:11.424Z,8.53
2018-12-22T09:02:11.660Z,8.54
2018-12-22T09:03:11.653Z,8.53
2018-12-22T09:04:11.639Z,8.6
2018-12-22T09:05:11.628Z,8.64
2018-12-22T09:06:11.362Z,8.64
2018-12-22T09:07:11.352Z,8.72
2018-12-22T09:08:11.343Z,8.77
2018-12-22T09:09:11.583Z,8.69
2018-12-22T09:10:11.567Z,8.8
2018-12-22T09:11:11.548Z,8.76
2018-12-22T09:12:11.580Z,8.71
2018-12-22T09:13:11.527Z,8.74
2018-12-22T09:14:11.515Z,8.6
2018-12-22T09:15:11.503Z,8.6
2018-12-22T09:16:11.490Z,8.52
2018-12-22T09:17:11.475Z,8.49
2018-12-22T09:18:11.465Z,8.5
2018-12-22T09:19:11.204Z,8.58
2018-12-22T09:20:11.192Z,8.49
2018-12-22T09:21:11.430Z,8.52
2018-12-22T09:22:11.415Z,8.53
2018-12-22T09:23:11.400Z,8.62
2018-12-22T09:24:11.157Z,8.68
2018-12-22T09:25:11.379Z,8.61
2018-12-22T09:26:13.139Z,8.65
2018-12-22T09:27:11.353Z,8.74
2018-12-22T09:28:11.341Z,8.77
2018-12-22T09:29:11.330Z,8.76
2018-12-22T09:30:11.320Z,8.72
2018-12-22T09:31:11.304Z,8.79
2018-12-22T09:32:11.049Z,8.89
2018-12-22T09:33:11.284Z,8.98
2018-12-22T09:34:17.899Z,9.01
2018-12-22T09:35:11.259Z,9.04
2018-12-22T09:36:11.241Z,9.04
2018-12-22T09:37:11.792Z,9.09
2018-12-22T09:38:11.216Z,8.98
2018-12-22T09:39:10.958Z,9.17
2018-12-22T09:40:11.207Z,9.23
2018-12-22T09:41:11.181Z,9.24
2018-12-22T09:42:11.171Z,9.21
2018-12-22T09:43:11.160Z,9.24
2018-12-22T09:44:11.147Z,9.2
2018-12-22T09:45:10.891Z,9.08
2018-12-22T09:46:11.122Z,9.08
2018-12-22T09:47:10.864Z,9.01
2018-12-22T09:48:11.100Z,8.95
2018-12-22T09:49:10.840Z,8.97
2018-12-22T09:50:11.074Z,8.97
2018-12-22T09:51:10.819Z,9
2018-12-22T09:52:10.919Z,8.97
2018-12-22T09:53:12.468Z,9
2018-12-22T09:54:10.529Z,8.89
2018-12-22T09:55:11.014Z,8.97
2018-12-22T09:56:10.753Z,8.94
2018-12-22T09:57:10.994Z,8.95
2018-12-22T09:58:10.977Z,8.9
2018-12-22T09:59:11.087Z,8.87
2018-12-22T10:00:10.969Z,9
2018-12-22T10:01:14.457Z,8.9
2018-12-22T10:02:10.681Z,8.94
2018-12-22T10:03:10.917Z,8.9
2018-12-22T10:04:10.903Z,8.85
2018-12-22T10:05:10.892Z,8.82
2018-12-22T10:06:10.883Z,8.87
2018-12-22T10:07:10.370Z,8.86
2018-12-22T10:08:10.857Z,8.87
2018-12-22T10:09:10.597Z,8.8
2018-12-22T10:10:10.837Z,8.83
2018-12-22T10:11:10.569Z,8.87
2018-12-22T10:12:10.559Z,8.8
2018-12-22T10:13:10.794Z,8.86
2018-12-22T10:14:10.786Z,8.87
2018-12-22T10:15:10.773Z,8.86
2018-12-22T10:16:10.762Z,8.9
2018-12-22T10:17:10.753Z,8.86
2018-12-22T10:18:10.734Z,8.87
2018-12-22T10:19:10.725Z,8.86
2018-12-22T10:20:10.718Z,8.86
2018-12-22T10:21:10.701Z,8.85
2018-12-22T10:22:10.688Z,8.85
2018-12-22T10:23:10.677Z,8.89
2018-12-22T10:24:10.166Z,8.86
2018-12-22T10:25:10.661Z,8.83
2018-12-22T10:26:10.391Z,8.79
2018-12-22T10:27:10.625Z,8.97
2018-12-22T10:28:10.615Z,8.82
2018-12-22T10:29:10.604Z,8.85
2018-12-22T10:30:10.596Z,8.8
2018-12-22T10:31:17.899Z,8.82
2018-12-22T10:32:10.569Z,8.76
2018-12-22T10:33:10.552Z,8.83
2018-12-22T10:34:10.545Z,8.87
2018-12-22T10:35:10.280Z,8.82
2018-12-22T10:36:10.516Z,8.86
2018-12-22T10:37:10.505Z,8.8
2018-12-22T10:38:10.493Z,8.82
2018-12-22T10:39:10.583Z,8.85
2018-12-22T10:40:10.471Z,8.85
2018-12-22T10:41:10.214Z,8.95
2018-12-22T10:42:10.201Z,8.9
2018-12-22T10:43:10.436Z,8.97
2018-12-22T10:44:10.419Z,9
2018-12-22T10:45:10.406Z,8.97
2018-12-22T10:46:10.395Z,9
2018-12-22T10:47:11.648Z,8.95
2018-12-22T10:48:10.372Z,8.98
2018-12-22T10:49:10.374Z,8.89
2018-12-22T10:50:10.349Z,8.97
2018-12-22T10:51:10.333Z,9
2018-12-22T10:52:10.329Z,9.03
2018-12-22T10:53:10.336Z,9.04
2018-12-22T10:54:10.353Z,8.98
2018-12-22T10:55:10.287Z,9.08
2018-12-22T10:56:10.024Z,9.05
2018-12-22T10:57:10.262Z,9.09
2018-12-22T10:58:10.257Z,9.09
2018-12-22T10:59:09.997Z,8.98
2018-12-22T11:00:10.223Z,9.03
2018-12-22T11:01:10.210Z,9.05
2018-12-22T11:02:10.200Z,9.01
2018-12-22T11:03:10.197Z,9.05
2018-12-22T11:04:10.175Z,9
2018-12-22T11:05:10.168Z,9.09
2018-12-22T11:06:10.152Z,9
2018-12-22T11:07:10.140Z,9.03
2018-12-22T11:08:10.137Z,9.08
2018-12-22T11:09:12.127Z,9.03
2018-12-22T11:10:10.105Z,8.98
2018-12-22T11:11:10.090Z,9.09
2018-12-22T11:12:10.081Z,9.03
2018-12-22T11:13:10.067Z,9.14
2018-12-22T11:14:11.944Z,8.94
2018-12-22T11:15:10.044Z,9.01
2018-12-22T11:16:10.032Z,8.97
2018-12-22T11:17:10.020Z,9.08
2018-12-22T11:18:10.012Z,9.03
2018-12-22T11:19:10.003Z,9.03
2018-12-22T11:20:10.089Z,9.03
2018-12-22T11:21:09.976Z,9.09
2018-12-22T11:22:09.956Z,9.05
2018-12-22T11:23:09.943Z,9.01
2018-12-22T11:24:09.936Z,9.05
2018-12-22T11:25:09.682Z,9.11
2018-12-22T11:26:09.917Z,9.04
2018-12-22T11:27:09.898Z,9.03
2018-12-22T11:28:09.888Z,9.05
2018-12-22T11:29:09.636Z,9
2018-12-22T11:30:09.863Z,8.97
2018-12-22T11:31:09.849Z,9
2018-12-22T11:32:09.842Z,9.01
2018-12-22T11:33:09.923Z,8.95
2018-12-22T11:34:09.814Z,9.01
2018-12-22T11:35:09.805Z,8.97
2018-12-22T11:36:09.665Z,8.95
2018-12-22T11:37:09.779Z,8.95
2018-12-22T11:38:09.781Z,9.04
2018-12-22T11:39:09.756Z,9.04
2018-12-22T11:40:09.753Z,8.86
2018-12-22T11:41:09.484Z,8.94
2018-12-22T11:42:09.471Z,8.97
2018-12-22T11:43:09.707Z,9.01
2018-12-22T11:44:09.693Z,8.87
2018-12-22T11:45:09.685Z,8.97
2018-12-22T11:46:09.675Z,8.94
2018-12-22T11:47:09.657Z,8.94
2018-12-22T11:48:09.401Z,8.86
2018-12-22T11:49:09.633Z,8.89
2018-12-22T11:50:09.624Z,9
2018-12-22T11:51:09.609Z,8.9
2018-12-22T11:52:09.603Z,9
2018-12-22T11:53:09.586Z,9.01
2018-12-22T11:54:09.573Z,8.94
2018-12-22T11:55:09.560Z,9
2018-12-22T11:56:09.554Z,9.03
2018-12-22T11:57:09.290Z,8.97
2018-12-22T11:58:09.531Z,9.05
2018-12-22T11:59:09.014Z,8.98
2018-12-22T12:00:09.503Z,8.86
2018-12-22T12:01:09.490Z,8.92
2018-12-22T12:02:14.517Z,8.86
2018-12-22T12:03:09.466Z,8.92
2018-12-22T12:04:09.451Z,8.85
2018-12-22T12:05:09.440Z,8.71
2018-12-22T12:06:09.434Z,8.74
2018-12-22T12:07:09.419Z,8.64
2018-12-22T12:08:09.158Z,8.65
2018-12-22T12:09:09.396Z,8.62
2018-12-22T12:10:09.387Z,8.52
2018-12-22T12:11:09.369Z,8.49
2018-12-22T12:12:09.357Z,8.47
2018-12-22T12:13:09.342Z,8.36
2018-12-22T12:14:09.336Z,8.35
2018-12-22T12:15:09.070Z,8.29
2018-12-22T12:16:09.310Z,8.24
2018-12-22T12:17:09.046Z,8.25
2018-12-22T12:18:09.284Z,8.14
2018-12-22T12:19:09.274Z,8.17
2018-12-22T12:20:09.261Z,8.14
2018-12-22T12:21:09.246Z,8.11
2018-12-22T12:22:09.231Z,8.13
2018-12-22T12:23:08.971Z,8.1
2018-12-22T12:24:09.205Z,8.09
2018-12-22T12:25:09.196Z,8.09
2018-12-22T12:26:09.179Z,8.06
2018-12-22T12:27:09.169Z,8.07
2018-12-22T12:28:09.153Z,8.03
2018-12-22T12:29:09.145Z,7.8
2018-12-22T12:30:09.127Z,7.78
2018-12-22T12:31:08.865Z,7.61
2018-12-22T12:32:09.102Z,7.68
2018-12-22T12:33:08.837Z,7.51
2018-12-22T12:34:09.076Z,7.51
2018-12-22T12:35:09.062Z,7.54
2018-12-22T12:36:09.049Z,7.47
2018-12-22T12:37:09.044Z,7.41
2018-12-22T12:38:09.026Z,7.51
2018-12-22T12:39:09.008Z,7.48
2018-12-22T12:40:08.993Z,7.52
2018-12-22T12:41:08.987Z,7.37
2018-12-22T12:42:08.971Z,7.44
2018-12-22T12:43:08.710Z,7.54
2018-12-22T12:44:08.956Z,7.52
2018-12-22T12:45:08.933Z,7.59
2018-12-22T12:46:08.912Z,7.45
2018-12-22T12:47:08.670Z,7.54
2018-12-22T12:48:08.637Z,7.49
2018-12-22T12:49:08.884Z,7.47
2018-12-22T12:50:08.859Z,7.48
2018-12-22T12:51:08.851Z,7.55
2018-12-22T12:52:08.834Z,7.67
2018-12-22T12:53:14.490Z,7.67
2018-12-22T12:54:08.808Z,7.56
2018-12-22T12:55:10.741Z,7.63
2018-12-22T12:56:08.778Z,7.64
2018-12-22T12:57:08.774Z,7.59
2018-12-22T12:58:08.751Z,7.58
2018-12-22T12:59:08.759Z,7.59
2018-12-22T13:00:08.723Z,7.58
2018-12-22T13:01:08.752Z,7.61
2018-12-22T13:02:08.456Z,7.67
2018-12-22T13:03:10.793Z,7.64
2018-12-22T13:04:08.420Z,7.61
2018-12-22T13:05:08.666Z,7.56
2018-12-22T13:06:08.644Z,7.59
2018-12-22T13:07:08.627Z,7.58
2018-12-22T13:08:08.616Z,7.59
2018-12-22T13:09:08.633Z,7.61
2018-12-22T13:10:08.586Z,7.54
2018-12-22T13:11:08.579Z,7.63
2018-12-22T13:12:08.561Z,7.68
2018-12-22T13:13:08.551Z,7.61
2018-12-22T13:14:10.066Z,7.56
2018-12-22T13:15:08.520Z,7.49
2018-12-22T13:16:08.508Z,7.52
2018-12-22T13:17:08.494Z,7.49
2018-12-22T13:18:08.480Z,7.49
2018-12-22T13:19:08.467Z,7.54
2018-12-22T13:20:08.455Z,7.51
2018-12-22T13:21:08.191Z,7.58